createdAt,value
2019-04-05T00:00:48.450Z,0
2019-04-05T00:01:48.528Z,0
2019-04-05T00:02:48.595Z,0
2019-04-05T00:03:48.692Z,0
2019-04-05T00:04:48.741Z,0
2019-04-05T00:05:48.860Z,0
2019-04-05T00:06:48.945Z,0
2019-04-05T00:07:49.032Z,0
2019-04-05T00:08:49.082Z,0
2019-04-05T00:09:49.174Z,0
2019-04-05T00:10:49.311Z,0
2019-04-05T00:11:49.415Z,0
2019-04-05T00:12:49.406Z,0
2019-04-05T00:13:49.512Z,0
2019-04-05T00:14:49.629Z,0
2019-04-05T00:15:49.787Z,0
2019-04-05T00:16:49.732Z,0
2019-04-05T00:17:49.825Z,0
2019-04-05T00:18:49.897Z,0
2019-04-05T00:19:50.021Z,0
2019-04-05T00:20:50.314Z,0
2019-04-05T00:21:50.240Z,0
2019-04-05T00:22:50.305Z,0
2019-04-05T00:23:50.366Z,0
2019-04-05T00:24:50.449Z,0
2019-04-05T00:25:50.622Z,0
2019-04-05T00:26:50.621Z,0
2019-04-05T00:27:50.706Z,0
2019-04-05T00:28:51.819Z,0
2019-04-05T00:29:50.858Z,0
2019-04-05T00:30:50.989Z,0
2019-04-05T00:31:51.102Z,0
2019-04-05T00:32:51.218Z,0
2019-04-05T00:33:51.335Z,0
2019-04-05T00:34:51.473Z,0
2019-04-05T00:35:51.583Z,0
2019-04-05T00:36:51.732Z,0
2019-04-05T00:37:51.815Z,0
2019-04-05T00:38:51.930Z,0
2019-04-05T00:39:52.021Z,0
2019-04-05T00:40:52.117Z,0
2019-04-05T00:41:52.251Z,0
2019-04-05T00:42:52.343Z,0
2019-04-05T00:43:52.438Z,0
2019-04-05T00:44:52.536Z,0
2019-04-05T00:45:52.631Z,0
2019-04-05T00:46:52.785Z,0
2019-04-05T00:47:52.856Z,0
2019-04-05T00:48:52.975Z,0
2019-04-05T00:49:53.105Z,0
2019-04-05T00:50:53.212Z,0
2019-04-05T00:51:53.352Z,0
2019-04-05T00:52:53.449Z,0
2019-04-05T00:53:53.530Z,0
2019-04-05T00:54:53.665Z,0
2019-04-05T00:55:53.757Z,0
2019-04-05T00:56:53.872Z,0
2019-04-05T00:57:53.971Z,0
2019-04-05T00:58:54.066Z,0
2019-04-05T00:59:54.140Z,0
2019-04-05T01:00:54.244Z,0
2019-04-05T01:01:54.357Z,0
2019-04-05T01:02:54.426Z,0
2019-04-05T01:03:54.482Z,0
2019-04-05T01:04:54.534Z,0
2019-04-05T01:05:54.632Z,0
2019-04-05T01:06:54.626Z,0
2019-04-05T01:07:54.755Z,0
2019-04-05T01:08:54.868Z,0
2019-04-05T01:09:54.974Z,0
2019-04-05T01:10:55.064Z,0
2019-04-05T01:11:55.160Z,0
2019-04-05T01:12:55.270Z,0
2019-04-05T01:13:55.353Z,0
2019-04-05T01:14:55.449Z,0
2019-04-05T01:15:55.537Z,0
2019-04-05T01:16:55.657Z,0
2019-04-05T01:17:55.759Z,0
2019-04-05T01:18:55.843Z,0
2019-04-05T01:19:56.918Z,0
2019-04-05T01:20:56.023Z,0
2019-04-05T01:21:56.147Z,0
2019-04-05T01:22:57.228Z,0
2019-04-05T01:23:56.316Z,0
2019-04-05T01:24:56.371Z,0
2019-04-05T01:25:56.465Z,0
2019-04-05T01:26:56.611Z,0
2019-04-05T01:27:56.721Z,0
2019-04-05T01:28:56.820Z,0
2019-04-05T01:29:56.932Z,0
2019-04-05T01:30:57.028Z,0
2019-04-05T01:31:57.161Z,0
2019-04-05T01:32:57.244Z,0
2019-04-05T01:33:57.334Z,0
2019-04-05T01:34:58.409Z,0
2019-04-05T01:35:57.515Z,0
2019-04-05T01:36:57.633Z,0
2019-04-05T01:37:57.748Z,0
2019-04-05T01:38:57.861Z,0
2019-04-05T01:39:57.930Z,0
2019-04-05T01:40:58.011Z,0
2019-04-05T01:41:58.126Z,0
2019-04-05T01:42:58.211Z,0
2019-04-05T01:43:58.322Z,0
2019-04-05T01:44:58.409Z,0
2019-04-05T01:45:58.510Z,0
2019-04-05T01:46:58.598Z,0
2019-04-05T01:47:58.701Z,0
2019-04-05T01:48:58.790Z,0
2019-04-05T01:49:58.878Z,0
2019-04-05T01:50:59.031Z,0
2019-04-05T01:51:59.135Z,0
2019-04-05T01:52:59.223Z,0
2019-04-05T01:53:59.284Z,0
2019-04-05T01:54:59.383Z,0
2019-04-05T01:55:59.483Z,0
2019-04-05T01:56:59.628Z,0
2019-04-05T01:57:59.697Z,0
2019-04-05T01:58:59.815Z,0
2019-04-05T01:59:59.941Z,0
2019-04-05T02:01:00.022Z,0
2019-04-05T02:02:00.163Z,0
2019-04-05T02:03:00.260Z,0
2019-04-05T02:04:00.327Z,0
2019-04-05T02:05:00.420Z,0
2019-04-05T02:06:00.469Z,0
2019-04-05T02:07:00.583Z,0
2019-04-05T02:08:00.681Z,0
2019-04-05T02:09:00.794Z,0
2019-04-05T02:10:00.869Z,0
2019-04-05T02:11:00.959Z,0
2019-04-05T02:12:01.138Z,0
2019-04-05T02:13:01.074Z,0
2019-04-05T02:14:01.165Z,0
2019-04-05T02:15:01.255Z,0
2019-04-05T02:16:06.392Z,0
2019-04-05T02:17:01.440Z,0
2019-04-05T02:18:01.531Z,0
2019-04-05T02:19:01.632Z,0
2019-04-05T02:20:01.725Z,0
2019-04-05T02:21:01.820Z,0
2019-04-05T02:22:02.046Z,0
2019-04-05T02:23:01.937Z,0
2019-04-05T02:24:02.038Z,0
2019-04-05T02:25:02.118Z,0
2019-04-05T02:26:02.178Z,0
2019-04-05T02:27:02.314Z,0
2019-04-05T02:28:02.384Z,0
2019-04-05T02:29:02.476Z,0
2019-04-05T02:30:02.578Z,0
2019-04-05T02:31:02.574Z,0
2019-04-05T02:32:03.704Z,0
2019-04-05T02:33:02.793Z,0
2019-04-05T02:34:02.897Z,0
2019-04-05T02:35:02.988Z,0
2019-04-05T02:36:03.114Z,0
2019-04-05T02:37:03.494Z,0
2019-04-05T02:38:03.254Z,0
2019-04-05T02:39:03.360Z,0
2019-04-05T02:40:03.461Z,0
2019-04-05T02:41:03.552Z,0
2019-04-05T02:42:03.689Z,0
2019-04-05T02:43:03.671Z,0
2019-04-05T02:44:03.785Z,0
2019-04-05T02:45:03.875Z,0
2019-04-05T02:46:03.958Z,0
2019-04-05T02:47:05.018Z,0
2019-04-05T02:48:04.149Z,0
2019-04-05T02:49:04.241Z,0
2019-04-05T02:50:04.345Z,0
2019-04-05T02:51:04.438Z,0
2019-04-05T02:52:04.538Z,0
2019-04-05T02:53:04.664Z,0
2019-04-05T02:54:04.765Z,0
2019-04-05T02:55:04.871Z,0
2019-04-05T02:56:04.926Z,0
2019-04-05T02:57:05.023Z,0
2019-04-05T02:58:05.173Z,0
2019-04-05T02:59:05.259Z,0
2019-04-05T03:00:05.346Z,0
2019-04-05T03:01:05.458Z,0
2019-04-05T03:02:05.622Z,0
2019-04-05T03:03:05.703Z,0
2019-04-05T03:04:05.787Z,0
2019-04-05T03:05:05.869Z,0
2019-04-05T03:06:05.961Z,0
2019-04-05T03:07:07.065Z,0
2019-04-05T03:08:06.187Z,0
2019-04-05T03:09:06.269Z,0
2019-04-05T03:10:06.366Z,0
2019-04-05T03:11:06.497Z,0
2019-04-05T03:12:06.600Z,0
2019-04-05T03:13:06.739Z,0
2019-04-05T03:14:06.884Z,0
2019-04-05T03:15:06.976Z,0
2019-04-05T03:16:07.113Z,0
2019-04-05T03:17:07.205Z,0
2019-04-05T03:18:07.212Z,0
2019-04-05T03:19:07.281Z,0
2019-04-05T03:20:07.370Z,0
2019-04-05T03:21:07.446Z,0
2019-04-05T03:22:07.555Z,0
2019-04-05T03:23:07.733Z,0
2019-04-05T03:24:07.693Z,0
2019-04-05T03:25:07.788Z,0
2019-04-05T03:26:07.910Z,0
2019-04-05T03:27:08.034Z,0
2019-04-05T03:28:08.151Z,0
2019-04-05T03:29:08.265Z,0
2019-04-05T03:30:08.358Z,0
2019-04-05T03:31:08.454Z,0
2019-04-05T03:32:08.558Z,0
2019-04-05T03:33:08.677Z,0
2019-04-05T03:34:08.836Z,0
2019-04-05T03:35:08.870Z,0
2019-04-05T03:36:08.983Z,0
2019-04-05T03:37:09.064Z,0
2019-04-05T03:38:09.208Z,0
2019-04-05T03:39:09.311Z,0
2019-04-05T03:40:09.454Z,0
2019-04-05T03:41:09.551Z,0
2019-04-05T03:42:09.644Z,0
2019-04-05T03:43:09.771Z,0
2019-04-05T03:44:09.889Z,0
2019-04-05T03:45:10.017Z,0
2019-04-05T03:46:10.016Z,0
2019-04-05T03:47:10.143Z,0
2019-04-05T03:48:10.300Z,0
2019-04-05T03:49:10.273Z,0
2019-04-05T03:50:10.421Z,0
2019-04-05T03:51:10.418Z,0
2019-04-05T03:52:10.494Z,0
2019-04-05T03:53:10.658Z,0
2019-04-05T03:54:10.625Z,0
2019-04-05T03:55:10.745Z,0
2019-04-05T03:56:10.838Z,0
2019-04-05T03:57:10.937Z,0
2019-04-05T03:58:11.181Z,0
2019-04-05T03:59:11.204Z,0
2019-04-05T04:00:11.320Z,0
2019-04-05T04:01:11.394Z,0
2019-04-05T04:02:11.498Z,0
2019-04-05T04:03:11.644Z,0
2019-04-05T04:04:11.583Z,0
2019-04-05T04:05:11.698Z,0
2019-04-05T04:06:11.847Z,0
2019-04-05T04:07:11.965Z,0
2019-04-05T04:08:12.156Z,0
2019-04-05T04:09:13.062Z,0
2019-04-05T04:10:12.154Z,0
2019-04-05T04:11:12.247Z,0
2019-04-05T04:12:12.358Z,0
2019-04-05T04:13:12.495Z,0
2019-04-05T04:14:13.582Z,0
2019-04-05T04:15:13.867Z,0
2019-04-05T04:16:12.770Z,0
2019-04-05T04:17:13.580Z,0
2019-04-05T04:18:13.002Z,0
2019-04-05T04:19:12.943Z,0
2019-04-05T04:20:13.019Z,0
2019-04-05T04:21:13.134Z,0
2019-04-05T04:22:13.227Z,0
2019-04-05T04:23:13.353Z,0
2019-04-05T04:24:13.440Z,0
2019-04-05T04:25:13.548Z,0
2019-04-05T04:26:13.637Z,0
2019-04-05T04:27:13.716Z,0
2019-04-05T04:28:13.828Z,0
2019-04-05T04:29:13.961Z,0
2019-04-05T04:30:14.081Z,0
2019-04-05T04:31:14.184Z,0
2019-04-05T04:32:14.286Z,0
2019-04-05T04:33:14.393Z,0
2019-04-05T04:34:14.446Z,0
2019-04-05T04:35:14.367Z,0
2019-04-05T04:36:14.467Z,0
2019-04-05T04:37:14.564Z,0
2019-04-05T04:38:14.670Z,0
2019-04-05T04:39:14.819Z,0
2019-04-05T04:40:14.978Z,0
2019-04-05T04:41:15.085Z,0
2019-04-05T04:42:15.201Z,0
2019-04-05T04:43:15.359Z,0
2019-04-05T04:44:15.495Z,0
2019-04-05T04:45:15.580Z,0
2019-04-05T04:46:15.679Z,0
2019-04-05T04:47:26.009Z,0
2019-04-05T04:48:16.934Z,0
2019-04-05T04:49:16.002Z,0
2019-04-05T04:50:16.106Z,0
2019-04-05T04:51:16.212Z,0
2019-04-05T04:52:16.320Z,0
2019-04-05T04:53:16.430Z,0
2019-04-05T04:54:16.602Z,0
2019-04-05T04:55:16.682Z,0
2019-04-05T04:56:16.789Z,0
2019-04-05T04:57:16.896Z,0
2019-04-05T04:58:17.000Z,0
2019-04-05T04:59:17.132Z,0
2019-04-05T05:00:17.132Z,0
2019-04-05T05:01:17.263Z,0
2019-04-05T05:02:17.418Z,0
2019-04-05T05:03:17.468Z,0
2019-04-05T05:04:17.621Z,0
2019-04-05T05:05:17.723Z,0
2019-04-05T05:06:17.819Z,0
2019-04-05T05:07:17.920Z,0
2019-04-05T05:08:18.036Z,0
2019-04-05T05:09:18.152Z,0
2019-04-05T05:10:18.262Z,0
2019-04-05T05:11:18.352Z,0
2019-04-05T05:12:18.454Z,0
2019-04-05T05:13:18.563Z,0
2019-04-05T05:14:18.703Z,0
2019-04-05T05:15:18.811Z,0
2019-04-05T05:16:19.906Z,0
2019-04-05T05:17:19.007Z,0
2019-04-05T05:18:20.101Z,0
2019-04-05T05:19:19.233Z,0
2019-04-05T05:20:19.334Z,0
2019-04-05T05:21:19.431Z,0
2019-04-05T05:22:19.539Z,0
2019-04-05T05:23:19.664Z,0
2019-04-05T05:24:19.839Z,0
2019-04-05T05:25:19.927Z,5.625
2019-04-05T05:26:19.941Z,5.625
2019-04-05T05:27:20.075Z,5.625
2019-04-05T05:28:20.192Z,5.625
2019-04-05T05:29:20.309Z,5.625
2019-04-05T05:30:20.442Z,5.625
2019-04-05T05:31:20.552Z,5.625
2019-04-05T05:32:20.678Z,5.625
2019-04-05T05:33:20.766Z,5.625
2019-04-05T05:34:20.944Z,5.625
2019-04-05T05:35:21.055Z,5.625
2019-04-05T05:36:21.164Z,5.625
2019-04-05T05:37:21.266Z,5.625
2019-04-05T05:38:21.285Z,11.25
2019-04-05T05:39:21.295Z,11.25
2019-04-05T05:40:33.678Z,11.25
2019-04-05T05:41:22.419Z,11.25
2019-04-05T05:42:21.558Z,11.25
2019-04-05T05:43:23.792Z,11.25
2019-04-05T05:44:21.925Z,11.25
2019-04-05T05:45:21.915Z,11.25
2019-04-05T05:46:21.898Z,11.25
2019-04-05T05:47:22.066Z,11.25
2019-04-05T05:48:22.129Z,16.875
2019-04-05T05:49:23.186Z,16.875
2019-04-05T05:50:22.214Z,16.875
2019-04-05T05:51:22.238Z,16.875
2019-04-05T05:52:22.306Z,16.875
2019-04-05T05:53:22.290Z,22.5
2019-04-05T05:54:22.483Z,22.5
2019-04-05T05:55:22.465Z,22.5
2019-04-05T05:56:23.541Z,22.5
2019-04-05T05:57:22.636Z,28.125
2019-04-05T05:58:23.509Z,28.125
2019-04-05T05:59:22.776Z,28.125
2019-04-05T06:00:23.805Z,28.125
2019-04-05T06:01:23.829Z,28.125
2019-04-05T06:02:22.879Z,28.125
2019-04-05T06:03:22.927Z,28.125
2019-04-05T06:04:23.016Z,28.125
2019-04-05T06:05:23.066Z,33.75
2019-04-05T06:06:23.113Z,33.75
2019-04-05T06:07:23.144Z,33.75
2019-04-05T06:08:23.194Z,33.75
2019-04-05T06:09:23.317Z,39.375
2019-04-05T06:10:23.373Z,39.375
2019-04-05T06:11:23.430Z,39.375
2019-04-05T06:12:23.481Z,39.375
2019-04-05T06:13:23.550Z,39.375
2019-04-05T06:14:23.668Z,45
2019-04-05T06:15:23.751Z,45
2019-04-05T06:16:23.808Z,45
2019-04-05T06:17:23.846Z,45
2019-04-05T06:18:23.897Z,45
2019-04-05T06:19:24.025Z,45
2019-04-05T06:20:24.086Z,45
2019-04-05T06:21:24.133Z,45
2019-04-05T06:22:24.175Z,45
2019-04-05T06:23:33.317Z,50.625
2019-04-05T06:24:25.295Z,50.625
2019-04-05T06:25:24.342Z,50.625
2019-04-05T06:26:24.408Z,50.625
2019-04-05T06:27:24.452Z,56.25
2019-04-05T06:28:24.500Z,56.25
2019-04-05T06:29:24.552Z,56.25
2019-04-05T06:30:24.642Z,56.25
2019-04-05T06:31:24.711Z,56.25
2019-04-05T06:32:24.810Z,56.25
2019-04-05T06:33:31.176Z,56.25
2019-04-05T06:34:25.862Z,56.25
2019-04-05T06:35:24.935Z,56.25
2019-04-05T06:36:24.985Z,61.875
2019-04-05T06:37:25.036Z,61.875
2019-04-05T06:38:25.085Z,61.875
2019-04-05T06:39:25.138Z,61.875
2019-04-05T06:40:25.206Z,67.5
2019-04-05T06:41:26.235Z,67.5
2019-04-05T06:42:25.297Z,61.875
2019-04-05T06:43:25.342Z,67.5
2019-04-05T06:44:27.811Z,67.5
2019-04-05T06:45:25.457Z,67.5
2019-04-05T06:46:25.578Z,67.5
2019-04-05T06:47:25.558Z,67.5
2019-04-05T06:48:28.892Z,67.5
2019-04-05T06:49:25.650Z,67.5
2019-04-05T06:50:25.749Z,67.5
2019-04-05T06:51:25.802Z,67.5
2019-04-05T06:52:25.855Z,67.5
2019-04-05T06:53:25.905Z,73.125
2019-04-05T06:54:25.949Z,67.5
2019-04-05T06:55:26.047Z,67.5
2019-04-05T06:56:26.113Z,67.5
2019-04-05T06:57:26.158Z,67.5
2019-04-05T06:58:28.795Z,67.5
2019-04-05T06:59:26.232Z,73.125
2019-04-05T07:00:26.249Z,73.125
2019-04-05T07:01:26.272Z,73.125
2019-04-05T07:02:26.334Z,73.125
2019-04-05T07:03:26.434Z,73.125
2019-04-05T07:04:26.473Z,73.125
2019-04-05T07:05:26.550Z,73.125
2019-04-05T07:06:26.630Z,78.75
2019-04-05T07:07:26.686Z,78.75
2019-04-05T07:08:26.795Z,78.75
2019-04-05T07:09:26.836Z,78.75
2019-04-05T07:10:27.938Z,84.375
2019-04-05T07:11:27.007Z,84.375
2019-04-05T07:12:27.045Z,90
2019-04-05T07:13:27.499Z,90
2019-04-05T07:14:27.140Z,95.625
2019-04-05T07:15:27.237Z,95.625
2019-04-05T07:16:27.285Z,95.625
2019-04-05T07:17:27.328Z,95.625
2019-04-05T07:18:34.251Z,90
2019-04-05T07:19:28.519Z,84.375
2019-04-05T07:20:27.590Z,84.375
2019-04-05T07:21:27.636Z,90
2019-04-05T07:22:37.184Z,95.625
2019-04-05T07:23:28.674Z,112.5
2019-04-05T07:24:27.800Z,118.125
2019-04-05T07:25:29.292Z,118.125
2019-04-05T07:26:27.933Z,118.125
2019-04-05T07:27:28.037Z,112.5
2019-04-05T07:28:28.080Z,112.5
2019-04-05T07:29:28.130Z,118.125
2019-04-05T07:30:28.890Z,123.75
2019-04-05T07:31:29.231Z,129.375
2019-04-05T07:32:31.104Z,129.375
2019-04-05T07:33:28.316Z,129.375
2019-04-05T07:34:28.351Z,129.375
2019-04-05T07:35:33.497Z,112.5
2019-04-05T07:36:28.431Z,123.75
2019-04-05T07:37:28.501Z,118.125
2019-04-05T07:38:28.563Z,118.125
2019-04-05T07:39:28.607Z,123.75
2019-04-05T07:40:28.709Z,129.375
2019-04-05T07:41:31.542Z,129.375
2019-04-05T07:42:28.781Z,129.375
2019-04-05T07:43:28.840Z,135
2019-04-05T07:44:28.885Z,129.375
2019-04-05T07:45:28.955Z,129.375
2019-04-05T07:46:29.012Z,129.375
2019-04-05T07:47:29.054Z,135
2019-04-05T07:48:29.115Z,140.625
2019-04-05T07:49:30.152Z,135
2019-04-05T07:50:29.228Z,123.75
2019-04-05T07:51:29.273Z,123.75
2019-04-05T07:52:29.326Z,123.75
2019-04-05T07:53:29.411Z,123.75
2019-04-05T07:54:29.505Z,112.5
2019-04-05T07:55:29.619Z,118.125
2019-04-05T07:56:29.670Z,118.125
2019-04-05T07:57:29.712Z,118.125
2019-04-05T07:58:29.782Z,112.5
2019-04-05T07:59:29.834Z,112.5
2019-04-05T08:00:29.934Z,112.5
2019-04-05T08:01:29.975Z,112.5
2019-04-05T08:02:30.020Z,101.25
2019-04-05T08:03:30.083Z,95.625
2019-04-05T08:04:30.160Z,101.25
2019-04-05T08:05:30.282Z,112.5
2019-04-05T08:06:30.383Z,112.5
2019-04-05T08:07:30.438Z,106.875
2019-04-05T08:08:30.501Z,106.875
2019-04-05T08:09:31.555Z,90
2019-04-05T08:10:30.888Z,95.625
2019-04-05T08:11:30.624Z,112.5
2019-04-05T08:12:30.668Z,118.125
2019-04-05T08:13:30.722Z,129.375
2019-04-05T08:14:30.770Z,123.75
2019-04-05T08:15:30.900Z,129.375
2019-04-05T08:16:30.965Z,118.125
2019-04-05T08:17:31.018Z,112.5
2019-04-05T08:18:31.119Z,106.875
2019-04-05T08:19:31.181Z,101.25
2019-04-05T08:20:31.478Z,118.125
2019-04-05T08:21:31.448Z,112.5
2019-04-05T08:22:32.363Z,90
2019-04-05T08:23:31.681Z,73.125
2019-04-05T08:24:31.702Z,78.75
2019-04-05T08:25:31.835Z,90
2019-04-05T08:26:32.860Z,112.5
2019-04-05T08:27:31.964Z,118.125
2019-04-05T08:28:32.028Z,123.75
2019-04-05T08:29:32.175Z,118.125
2019-04-05T08:30:32.330Z,123.75
2019-04-05T08:31:32.381Z,106.875
2019-04-05T08:32:32.444Z,106.875
2019-04-05T08:33:32.493Z,135
2019-04-05T08:34:32.545Z,151.875
2019-04-05T08:35:32.641Z,180
2019-04-05T08:36:32.883Z,213.75
2019-04-05T08:37:32.829Z,230.625
2019-04-05T08:38:32.839Z,236.25
2019-04-05T08:39:33.873Z,236.25
2019-04-05T08:40:33.016Z,219.375
2019-04-05T08:41:33.087Z,191.25
2019-04-05T08:42:33.136Z,163.125
2019-04-05T08:43:33.202Z,140.625
2019-04-05T08:44:33.262Z,118.125
2019-04-05T08:45:33.309Z,112.5
2019-04-05T08:46:33.404Z,112.5
2019-04-05T08:47:33.461Z,118.125
2019-04-05T08:48:33.494Z,129.375
2019-04-05T08:49:33.533Z,135
2019-04-05T08:50:33.601Z,129.375
2019-04-05T08:51:33.704Z,118.125
2019-04-05T08:52:33.757Z,112.5
2019-04-05T08:53:33.801Z,112.5
2019-04-05T08:54:36.573Z,112.5
2019-04-05T08:55:33.874Z,123.75
2019-04-05T08:56:33.994Z,129.375
2019-04-05T08:57:34.083Z,135
2019-04-05T08:58:34.113Z,129.375
2019-04-05T08:59:34.147Z,129.375
2019-04-05T09:00:34.210Z,135
2019-04-05T09:01:34.340Z,123.75
2019-04-05T09:02:34.432Z,118.125
2019-04-05T09:03:34.484Z,112.5
2019-04-05T09:04:34.533Z,106.875
2019-04-05T09:05:34.564Z,106.875
2019-04-05T09:06:34.660Z,118.125
2019-04-05T09:07:34.705Z,106.875
2019-04-05T09:08:34.758Z,101.25
2019-04-05T09:09:34.805Z,112.5
2019-04-05T09:10:34.869Z,118.125
2019-04-05T09:11:34.938Z,118.125
2019-04-05T09:12:34.989Z,118.125
2019-04-05T09:13:35.049Z,129.375
2019-04-05T09:14:35.152Z,140.625
2019-04-05T09:15:35.195Z,146.25
2019-04-05T09:16:35.274Z,151.875
2019-04-05T09:17:35.332Z,151.875
2019-04-05T09:18:35.378Z,151.875
2019-04-05T09:19:35.450Z,163.125
2019-04-05T09:20:35.515Z,174.375
2019-04-05T09:21:40.205Z,174.375
2019-04-05T09:22:35.649Z,174.375
2019-04-05T09:23:35.692Z,168.75
2019-04-05T09:24:35.749Z,168.75
2019-04-05T09:25:35.797Z,163.125
2019-04-05T09:26:35.908Z,157.5
2019-04-05T09:27:35.954Z,146.25
2019-04-05T09:28:36.008Z,123.75
2019-04-05T09:29:36.056Z,106.875
2019-04-05T09:30:36.102Z,84.375
2019-04-05T09:31:36.205Z,73.125
2019-04-05T09:32:36.619Z,67.5
2019-04-05T09:33:37.350Z,73.125
2019-04-05T09:34:36.390Z,73.125
2019-04-05T09:35:36.434Z,73.125
2019-04-05T09:36:36.526Z,78.75
2019-04-05T09:37:37.580Z,78.75
2019-04-05T09:38:36.724Z,78.75
2019-04-05T09:39:36.778Z,78.75
2019-04-05T09:40:36.894Z,78.75
2019-04-05T09:41:37.017Z,84.375
2019-04-05T09:42:37.072Z,90
2019-04-05T09:43:37.119Z,90
2019-04-05T09:44:37.166Z,90
2019-04-05T09:45:37.213Z,90
2019-04-05T09:46:46.318Z,90
2019-04-05T09:47:38.340Z,95.625
2019-04-05T09:48:37.379Z,101.25
2019-04-05T09:49:37.467Z,101.25
2019-04-05T09:50:37.451Z,101.25
2019-04-05T09:51:37.573Z,101.25
2019-04-05T09:52:39.922Z,101.25
2019-04-05T09:53:37.735Z,95.625
2019-04-05T09:54:37.789Z,95.625
2019-04-05T09:55:37.872Z,106.875
2019-04-05T09:56:37.922Z,112.5
2019-04-05T09:57:38.019Z,106.875
2019-04-05T09:58:38.075Z,95.625
2019-04-05T09:59:38.150Z,84.375
2019-04-05T10:00:38.199Z,78.75
2019-04-05T10:01:38.241Z,78.75
2019-04-05T10:02:38.334Z,73.125
2019-04-05T10:03:38.398Z,73.125
2019-04-05T10:04:38.479Z,73.125
2019-04-05T10:05:38.612Z,84.375
2019-04-05T10:06:38.682Z,101.25
2019-04-05T10:07:48.629Z,118.125
2019-04-05T10:08:39.810Z,129.375
2019-04-05T10:09:38.889Z,123.75
2019-04-05T10:10:38.977Z,118.125
2019-04-05T10:11:38.981Z,118.125
2019-04-05T10:12:39.099Z,118.125
2019-04-05T10:13:39.144Z,112.5
2019-04-05T10:14:39.191Z,106.875
2019-04-05T10:15:39.256Z,101.25
2019-04-05T10:16:39.316Z,101.25
2019-04-05T10:17:39.413Z,95.625
2019-04-05T10:18:39.459Z,90
2019-04-05T10:19:49.119Z,84.375
2019-04-05T10:20:40.533Z,78.75
2019-04-05T10:21:39.572Z,78.75
2019-04-05T10:22:39.671Z,84.375
2019-04-05T10:23:39.727Z,90
2019-04-05T10:24:39.766Z,95.625
2019-04-05T10:25:39.816Z,101.25
2019-04-05T10:26:39.850Z,101.25
2019-04-05T10:27:39.950Z,95.625
2019-04-05T10:28:39.989Z,95.625
2019-04-05T10:29:40.032Z,90
2019-04-05T10:30:41.071Z,90
2019-04-05T10:31:40.128Z,95.625
2019-04-05T10:32:40.235Z,90
2019-04-05T10:33:40.279Z,90
2019-04-05T10:34:40.337Z,90
2019-04-05T10:35:40.405Z,84.375
2019-04-05T10:36:40.446Z,84.375
2019-04-05T10:37:40.515Z,90
2019-04-05T10:38:40.573Z,101.25
2019-04-05T10:39:40.666Z,123.75
2019-04-05T10:40:40.724Z,129.375
2019-04-05T10:41:40.778Z,135
2019-04-05T10:42:40.889Z,140.625
2019-04-05T10:43:40.933Z,135
2019-04-05T10:44:40.981Z,135
2019-04-05T10:45:41.034Z,135
2019-04-05T10:46:41.092Z,140.625
2019-04-05T10:47:41.165Z,140.625
2019-04-05T10:48:41.217Z,140.625
2019-04-05T10:49:41.276Z,140.625
2019-04-05T10:50:41.330Z,140.625
2019-04-05T10:51:41.367Z,140.625
2019-04-05T10:52:41.442Z,146.25
2019-04-05T10:53:41.497Z,151.875
2019-04-05T10:54:41.588Z,157.5
2019-04-05T10:55:41.546Z,157.5
2019-04-05T10:56:41.656Z,151.875
2019-04-05T10:57:41.779Z,129.375
2019-04-05T10:58:41.888Z,112.5
2019-04-05T10:59:41.930Z,95.625
2019-04-05T11:00:42.993Z,78.75
2019-04-05T11:01:42.080Z,73.125
2019-04-05T11:02:42.169Z,67.5
2019-04-05T11:03:42.219Z,78.75
2019-04-05T11:04:42.312Z,78.75
2019-04-05T11:05:42.387Z,84.375
2019-04-05T11:06:42.466Z,90
2019-04-05T11:07:42.660Z,90
2019-04-05T11:08:42.589Z,90
2019-04-05T11:09:42.661Z,84.375
2019-04-05T11:10:42.703Z,84.375
2019-04-05T11:11:42.743Z,84.375
2019-04-05T11:12:42.839Z,90
2019-04-05T11:13:43.885Z,90
2019-04-05T11:14:42.914Z,90
2019-04-05T11:15:42.965Z,95.625
2019-04-05T11:16:43.001Z,95.625
2019-04-05T11:17:44.353Z,95.625
2019-04-05T11:18:45.081Z,90
2019-04-05T11:19:43.090Z,90
2019-04-05T11:20:43.129Z,90
2019-04-05T11:21:43.179Z,84.375
2019-04-05T11:22:46.613Z,84.375
2019-04-05T11:23:43.299Z,84.375
2019-04-05T11:24:43.351Z,84.375
2019-04-05T11:25:43.416Z,84.375
2019-04-05T11:26:43.472Z,84.375
2019-04-05T11:27:43.543Z,84.375
2019-04-05T11:28:43.620Z,84.375
2019-04-05T11:29:43.669Z,95.625
2019-04-05T11:30:43.789Z,95.625
2019-04-05T11:31:55.890Z,101.25
2019-04-05T11:32:44.889Z,112.5
2019-04-05T11:33:43.951Z,123.75
2019-04-05T11:34:44.040Z,135
2019-04-05T11:35:44.091Z,146.25
2019-04-05T11:36:44.130Z,151.875
2019-04-05T11:37:44.179Z,151.875
2019-04-05T11:38:45.247Z,146.25
2019-04-05T11:39:44.273Z,129.375
2019-04-05T11:40:44.363Z,118.125
2019-04-05T11:41:44.442Z,112.5
2019-04-05T11:42:44.527Z,106.875
2019-04-05T11:43:44.641Z,106.875
2019-04-05T11:44:44.680Z,106.875
2019-04-05T11:45:45.721Z,106.875
2019-04-05T11:46:44.750Z,101.25
2019-04-05T11:47:44.822Z,95.625
2019-04-05T11:48:45.901Z,90
2019-04-05T11:49:44.928Z,90
2019-04-05T11:50:44.972Z,84.375
2019-04-05T11:51:45.034Z,90
2019-04-05T11:52:45.102Z,90
2019-04-05T11:53:45.219Z,84.375
2019-04-05T11:54:45.932Z,84.375
2019-04-05T11:55:46.661Z,84.375
2019-04-05T11:56:45.351Z,78.75
2019-04-05T11:57:45.405Z,78.75
2019-04-05T11:58:48.592Z,78.75
2019-04-05T11:59:48.512Z,78.75
2019-04-05T12:00:45.636Z,73.125
2019-04-05T12:01:45.680Z,73.125
2019-04-05T12:02:45.728Z,73.125
2019-04-05T12:03:45.796Z,73.125
2019-04-05T12:04:45.834Z,67.5
2019-04-05T12:05:45.924Z,61.875
2019-04-05T12:06:45.988Z,61.875
2019-04-05T12:07:46.071Z,61.875
2019-04-05T12:08:46.177Z,61.875
2019-04-05T12:09:47.992Z,61.875
2019-04-05T12:10:46.384Z,67.5
2019-04-05T12:11:46.550Z,67.5
2019-04-05T12:12:46.460Z,67.5
2019-04-05T12:13:47.696Z,73.125
2019-04-05T12:14:46.590Z,73.125
2019-04-05T12:15:46.660Z,84.375
2019-04-05T12:16:46.707Z,90
2019-04-05T12:17:46.767Z,95.625
2019-04-05T12:18:46.869Z,101.25
2019-04-05T12:19:46.944Z,101.25
2019-04-05T12:20:49.654Z,101.25
2019-04-05T12:21:48.013Z,101.25
2019-04-05T12:22:47.078Z,95.625
2019-04-05T12:23:47.154Z,95.625
2019-04-05T12:24:47.679Z,95.625
2019-04-05T12:25:47.293Z,101.25
2019-04-05T12:26:48.321Z,106.875
2019-04-05T12:27:47.369Z,112.5
2019-04-05T12:28:48.462Z,112.5
2019-04-05T12:29:47.522Z,112.5
2019-04-05T12:30:47.553Z,118.125
2019-04-05T12:31:47.647Z,118.125
2019-04-05T12:32:48.806Z,118.125
2019-04-05T12:33:51.176Z,112.5
2019-04-05T12:34:49.417Z,112.5
2019-04-05T12:35:51.490Z,106.875
2019-04-05T12:36:50.503Z,106.875
2019-04-05T12:37:50.352Z,106.875
2019-04-05T12:38:49.028Z,95.625
2019-04-05T12:39:48.064Z,95.625
2019-04-05T12:40:48.275Z,90
2019-04-05T12:41:48.159Z,84.375
2019-04-05T12:42:48.188Z,84.375
2019-04-05T12:43:50.738Z,84.375
2019-04-05T12:44:48.309Z,84.375
2019-04-05T12:45:48.355Z,78.75
2019-04-05T12:46:48.400Z,78.75
2019-04-05T12:47:48.477Z,73.125
2019-04-05T12:48:48.572Z,67.5
2019-04-05T12:49:48.621Z,67.5
2019-04-05T12:51:00.478Z,67.5
2019-04-05T12:51:49.715Z,73.125
2019-04-05T12:52:48.747Z,73.125
2019-04-05T12:53:49.806Z,78.75
2019-04-05T12:54:52.710Z,78.75
2019-04-05T12:55:48.873Z,78.75
2019-04-05T12:56:49.901Z,78.75
2019-04-05T12:57:49.919Z,78.75
2019-04-05T12:58:48.956Z,78.75
2019-04-05T12:59:51.354Z,78.75
2019-04-05T13:00:49.036Z,78.75
2019-04-05T13:01:50.066Z,78.75
2019-04-05T13:02:50.834Z,84.375
2019-04-05T13:03:50.979Z,90
2019-04-05T13:04:50.891Z,90
2019-04-05T13:05:51.167Z,90
2019-04-05T13:06:50.549Z,90
2019-04-05T13:07:50.638Z,95.625
2019-04-05T13:08:49.348Z,95.625
2019-04-05T13:09:49.506Z,90
2019-04-05T13:10:49.546Z,84.375
2019-04-05T13:11:50.577Z,84.375
2019-04-05T13:12:51.725Z,84.375
2019-04-05T13:13:50.639Z,84.375
2019-04-05T13:14:49.732Z,78.75
2019-04-05T13:15:50.764Z,78.75
2019-04-05T13:16:50.772Z,78.75
2019-04-05T13:17:49.828Z,78.75
2019-04-05T13:18:50.688Z,78.75
2019-04-05T13:19:50.961Z,73.125
2019-04-05T13:20:51.005Z,67.5
2019-04-05T13:21:52.757Z,67.5
2019-04-05T13:22:51.136Z,67.5
2019-04-05T13:23:50.197Z,67.5
2019-04-05T13:24:50.330Z,67.5
2019-04-05T13:25:50.363Z,67.5
2019-04-05T13:26:50.412Z,67.5
2019-04-05T13:27:50.501Z,67.5
2019-04-05T13:28:50.549Z,67.5
2019-04-05T13:29:50.646Z,67.5
2019-04-05T13:30:50.646Z,61.875